Terminal Aerodrome Forecast
Issued by NWS Tiyan, Guam

Home | Current Version | Previous Version | Text Only | Print | Product List | Glossary On
Versions: 1 2 3 4 5 6 7 8 9 10 11 12 13 14 15 16 17 18 19 20 21 22 23 24 25 26
057
FTPQ31 PGUM 200531
TAFGUM
TAF
PGUM 200531Z 2006/2112 08015KT P6SM VCSH SCT025 SCT110
     FM200800 07008KT P6SM SCT025=

USA.gov is the U.S. government's official web portal to all federal, state and local government web resources and services.